sensor_id;sensor_type;location;lat;lon;timestamp;pressure;altitude;pressure_sealevel;temperature;humidity
55858;BME280;41779;52.360;31.026;2022-10-17T00:04:30;1040.4;;;11.6;46.9
55858;BME280;41779;52.360;31.026;2022-10-17T00:09:14;1040.4;;;11.6;47.1
55858;BME280;41779;52.360;31.026;2022-10-17T00:14:14;1040.3;;;11.7;47
55858;BME280;41779;52.360;31.026;2022-10-17T00:19:16;1040.3;;;11.7;46.9
55858;BME280;41779;52.360;31.026;2022-10-17T00:24:10;1040.2;;;11.7;47
55858;BME280;41779;52.360;31.026;2022-10-17T00:29:10;1040.2;;;11.7;47.3
55858;BME280;41779;52.360;31.026;2022-10-17T00:34:02;1040.2;;;11.7;47.2
55858;BME280;41779;52.360;31.026;2022-10-17T00:38:56;1040.2;;;11.7;47.1
55858;BME280;41779;52.360;31.026;2022-10-17T00:43:59;1040.3;;;11.7;47.2
55858;BME280;41779;52.360;31.026;2022-10-17T00:49:09;1040.3;;;11.6;47.5
55858;BME280;41779;52.360;31.026;2022-10-17T00:54:29;1040.3;;;11.6;47.6
55858;BME280;41779;52.360;31.026;2022-10-17T00:59:28;1040.2;;;11.6;47.5
55858;BME280;41779;52.360;31.026;2022-10-17T01:04:04;1040.3;;;11.7;47.3
55858;BME280;41779;52.360;31.026;2022-10-17T01:09:02;1040.3;;;11.6;47.4
55858;BME280;41779;52.360;31.026;2022-10-17T01:14:31;1040.3;;;11.6;47.7
55858;BME280;41779;52.360;31.026;2022-10-17T01:19:41;1040.2;;;11.5;47.7
55858;BME280;41779;52.360;31.026;2022-10-17T01:23:53;1040.1;;;11.6;47.6
55858;BME280;41779;52.360;31.026;2022-10-17T01:29:27;1040.1;;;11.6;47.5
55858;BME280;41779;52.360;31.026;2022-10-17T01:34:01;1040;;;11.5;47.7
55858;BME280;41779;52.360;31.026;2022-10-17T01:39:33;1039.9;;;11.5;47.8
55858;BME280;41779;52.360;31.026;2022-10-17T01:44:11;1039.9;;;11.6;47.6
55858;BME280;41779;52.360;31.026;2022-10-17T01:49:26;1039.8;;;11.5;47.5
55858;BME280;41779;52.360;31.026;2022-10-17T01:54:22;1039.8;;;11.5;47.6
55858;BME280;41779;52.360;31.026;2022-10-17T01:59:21;1039.8;;;11.5;47.8
55858;BME280;41779;52.360;31.026;2022-10-17T02:04:22;1039.8;;;11.4;47.9
55858;BME280;41779;52.360;31.026;2022-10-17T02:09:28;1039.8;;;11.4;47.8
55858;BME280;41779;52.360;31.026;2022-10-17T02:14:20;1039.9;;;11.4;47.8
55858;BME280;41779;52.360;31.026;2022-10-17T02:19:01;1039.8;;;11.3;48.1
55858;BME280;41779;52.360;31.026;2022-10-17T02:23:46;1039.9;;;11.3;48.1
55858;BME280;41779;52.360;31.026;2022-10-17T02:29:29;1039.9;;;11.3;48
55858;BME280;41779;52.360;31.026;2022-10-17T02:34:28;1039.9;;;11.4;47.9
55858;BME280;41779;52.360;31.026;2022-10-17T02:39:24;1039.8;;;11.4;47.9
55858;BME280;41779;52.360;31.026;2022-10-17T02:44:28;1039.8;;;11.4;47.9
55858;BME280;41779;52.360;31.026;2022-10-17T02:49:20;1039.9;;;11.4;47.8
55858;BME280;41779;52.360;31.026;2022-10-17T02:54:13;1039.9;;;11.4;47.7
55858;BME280;41779;52.360;31.026;2022-10-17T02:59:13;1039.9;;;11.4;47.7
55858;BME280;41779;52.360;31.026;2022-10-17T03:04:06;1039.9;;;11.4;47.7
55858;BME280;41779;52.360;31.026;2022-10-17T03:08:56;1039.9;;;11.5;47.6
55858;BME280;41779;52.360;31.026;2022-10-17T03:13:44;1039.9;;;11.5;47.5
55858;BME280;41779;52.360;31.026;2022-10-17T03:19:08;1039.8;;;11.5;47.4
55858;BME280;41779;52.360;31.026;2022-10-17T03:24:32;1039.8;;;11.5;47.4
55858;BME280;41779;52.360;31.026;2022-10-17T03:29:34;1039.7;;;11.4;47.5
55858;BME280;41779;52.360;31.026;2022-10-17T03:33:52;1039.7;;;11.4;47.4
55858;BME280;41779;52.360;31.026;2022-10-17T03:39:04;1039.6;;;11.4;47.3
55858;BME280;41779;52.360;31.026;2022-10-17T03:44:20;1039.7;;;11.4;47.3
55858;BME280;41779;52.360;31.026;2022-10-17T03:49:32;1039.9;;;11.4;47.3
55858;BME280;41779;52.360;31.026;2022-10-17T03:53:44;1039.9;;;11.5;47.1
55858;BME280;41779;52.360;31.026;2022-10-17T03:58:44;1039.9;;;11.5;47.2
55858;BME280;41779;52.360;31.026;2022-10-17T04:03:47;1039.9;;;11.5;47.1
55858;BME280;41779;52.360;31.026;2022-10-17T04:08:58;1039.8;;;11.4;47.1
55858;BME280;41779;52.360;31.026;2022-10-17T04:14:12;1039.8;;;11.4;47.2
55858;BME280;41779;52.360;31.026;2022-10-17T04:18:46;1039.8;;;11.5;47.1
55858;BME280;41779;52.360;31.026;2022-10-17T04:24:22;1039.8;;;11.5;47
55858;BME280;41779;52.360;31.026;2022-10-17T04:29:22;1039.7;;;11.5;46.9
55858;BME280;41779;52.360;31.026;2022-10-17T04:34:24;1039.6;;;11.5;46.9
55858;BME280;41779;52.360;31.026;2022-10-17T04:39:32;1039.7;;;11.6;46.8
55858;BME280;41779;52.360;31.026;2022-10-17T04:44:22;1039.7;;;11.6;46.8
55858;BME280;41779;52.360;31.026;2022-10-17T04:49:02;1039.6;;;11.6;46.7
55858;BME280;41779;52.360;31.026;2022-10-17T04:54:10;1039.5;;;11.5;46.7
55858;BME280;41779;52.360;31.026;2022-10-17T04:59:32;1039.5;;;11.6;46.7
55858;BME280;41779;52.360;31.026;2022-10-17T05:04:32;1039.6;;;11.6;46.6
55858;BME280;41779;52.360;31.026;2022-10-17T05:09:24;1039.5;;;11.7;46.4
55858;BME280;41779;52.360;31.026;2022-10-17T05:14:34;1039.4;;;11.7;46.3
55858;BME280;41779;52.360;31.026;2022-10-17T05:19:20;1039.6;;;11.7;46.3
55858;BME280;41779;52.360;31.026;2022-10-17T05:24:12;1039.6;;;11.7;46.4
55858;BME280;41779;52.360;31.026;2022-10-17T05:28:46;1039.7;;;11.7;46.3
55858;BME280;41779;52.360;31.026;2022-10-17T05:34:22;1039.7;;;11.7;46.4
55858;BME280;41779;52.360;31.026;2022-10-17T05:38:47;1039.7;;;11.6;46.5
55858;BME280;41779;52.360;31.026;2022-10-17T05:43:58;1039.9;;;11.7;46.5
55858;BME280;41779;52.360;31.026;2022-10-17T05:49:20;1039.8;;;11.7;46.4
55858;BME280;41779;52.360;31.026;2022-10-17T05:54:30;1039.8;;;11.7;46.4
55858;BME280;41779;52.360;31.026;2022-10-17T05:59:32;1039.8;;;11.7;46.5
55858;BME280;41779;52.360;31.026;2022-10-17T06:04:30;1039.8;;;11.7;46.5
55858;BME280;41779;52.360;31.026;2022-10-17T06:09:20;1039.8;;;11.8;46.4
55858;BME280;41779;52.360;31.026;2022-10-17T06:13:52;1039.8;;;11.8;46.4
55858;BME280;41779;52.360;31.026;2022-10-17T06:19:26;1039.8;;;11.8;46.5
55858;BME280;41779;52.360;31.026;2022-10-17T06:24:30;1039.9;;;12;46.3
55858;BME280;41779;52.360;31.026;2022-10-17T06:29:06;1039.8;;;12.1;46
55858;BME280;41779;52.360;31.026;2022-10-17T06:34:28;1039.9;;;12.3;45.8
55858;BME280;41779;52.360;31.026;2022-10-17T06:38:56;1039.9;;;12.4;45.4
55858;BME280;41779;52.360;31.026;2022-10-17T06:44:18;1039.8;;;12.5;45.2
55858;BME280;41779;52.360;31.026;2022-10-17T06:49:08;1039.9;;;12.5;45.2
55858;BME280;41779;52.360;31.026;2022-10-17T06:54:20;1040;;;12.5;45.1
55858;BME280;41779;52.360;31.026;2022-10-17T06:59:20;1039.9;;;12.6;45
55858;BME280;41779;52.360;31.026;2022-10-17T07:04:34;1040;;;12.8;44.8
55858;BME280;41779;52.360;31.026;2022-10-17T07:09:08;1039.9;;;13.1;44.5
55858;BME280;41779;52.360;31.026;2022-10-17T07:14:32;1040;;;13.4;44.1
55858;BME280;41779;52.360;31.026;2022-10-17T07:18:54;1039.9;;;13.7;43.6
55858;BME280;41779;52.360;31.026;2022-10-17T07:24:12;1040.1;;;14;42.6
55858;BME280;41779;52.360;31.026;2022-10-17T07:28:45;1039.9;;;14.4;41.7
55858;BME280;41779;52.360;31.026;2022-10-17T07:34:20;1039.8;;;14.6;41.6
55858;BME280;41779;52.360;31.026;2022-10-17T07:39:34;1039.9;;;14.6;40.9
55858;BME280;41779;52.360;31.026;2022-10-17T07:44:08;1040.1;;;14.4;40.7
55858;BME280;41779;52.360;31.026;2022-10-17T07:49:20;1040;;;14.3;41.1
55858;BME280;41779;52.360;31.026;2022-10-17T07:54:20;1040;;;14.2;41.5
55858;BME280;41779;52.360;31.026;2022-10-17T07:58:58;1039.9;;;14.3;41.8
55858;BME280;41779;52.360;31.026;2022-10-17T08:04:10;1039.9;;;14.5;41.5
55858;BME280;41779;52.360;31.026;2022-10-17T08:08:56;1039.9;;;14.6;41.6
55858;BME280;41779;52.360;31.026;2022-10-17T08:13:44;1040.1;;;14.5;41.7
55858;BME280;41779;52.360;31.026;2022-10-17T08:18:44;1040.1;;;14.4;41.9
55858;BME280;41779;52.360;31.026;2022-10-17T08:23:44;1040.2;;;14.4;42
55858;BME280;41779;52.360;31.026;2022-10-17T08:29:32;1040.3;;;14.3;42.3
55858;BME280;41779;52.360;31.026;2022-10-17T08:34:34;1040.2;;;14.3;43
55858;BME280;41779;52.360;31.026;2022-10-17T08:39:08;1040.1;;;14.3;43.8
55858;BME280;41779;52.360;31.026;2022-10-17T08:44:10;1040;;;14.3;43.9
55858;BME280;41779;52.360;31.026;2022-10-17T08:49:41;1040;;;14.3;43.7
55858;BME280;41779;52.360;31.026;2022-10-17T08:54:21;1040.1;;;14.3;43.8
55858;BME280;41779;52.360;31.026;2022-10-17T08:59:00;1040.2;;;14.2;44.1
55858;BME280;41779;52.360;31.026;2022-10-17T09:04:01;1040.2;;;14.1;44.4
55858;BME280;41779;52.360;31.026;2022-10-17T09:09:02;1040.2;;;14.1;44.7
55858;BME280;41779;52.360;31.026;2022-10-17T09:14:29;1040.3;;;14.1;44.9
55858;BME280;41779;52.360;31.026;2022-10-17T09:18:45;1040.2;;;14.1;44.9
55858;BME280;41779;52.360;31.026;2022-10-17T09:24:19;1040.1;;;14.1;45.3
55858;BME280;41779;52.360;31.026;2022-10-17T09:29:14;1040.2;;;14.1;45.4
55858;BME280;41779;52.360;31.026;2022-10-17T09:34:32;1040.3;;;14.2;45.6
55858;BME280;41779;52.360;31.026;2022-10-17T09:39:22;1040.4;;;14.3;45.3
55858;BME280;41779;52.360;31.026;2022-10-17T09:44:35;1040.3;;;14.4;45.3
55858;BME280;41779;52.360;31.026;2022-10-17T09:48:44;1040.3;;;14.5;45.2
55858;BME280;41779;52.360;31.026;2022-10-17T09:54:02;1040.2;;;14.7;45.1
55858;BME280;41779;52.360;31.026;2022-10-17T09:59:12;1040.2;;;14.9;45
55858;BME280;41779;52.360;31.026;2022-10-17T10:04:08;1040.1;;;15.2;44.5
55858;BME280;41779;52.360;31.026;2022-10-17T10:09:36;1040;;;15.4;44.2
55858;BME280;41779;52.360;31.026;2022-10-17T10:13:47;1040;;;15.5;44.1
55858;BME280;41779;52.360;31.026;2022-10-17T10:19:25;1039.9;;;15.7;43.8
55858;BME280;41779;52.360;31.026;2022-10-17T10:24:24;1039.8;;;16;42.3
55858;BME280;41779;52.360;31.026;2022-10-17T10:28:57;1039.6;;;16.8;41.1
55858;BME280;41779;52.360;31.026;2022-10-17T10:34:02;1039.5;;;18.3;38.7
55858;BME280;41779;52.360;31.026;2022-10-17T10:39:26;1039.5;;;18.6;38.2
55858;BME280;41779;52.360;31.026;2022-10-17T10:43:59;1039.5;;;18.7;38.2
55858;BME280;41779;52.360;31.026;2022-10-17T10:48:59;1039.3;;;20.1;36.8
55858;BME280;41779;52.360;31.026;2022-10-17T10:54:09;1039.3;;;22;33
55858;BME280;41779;52.360;31.026;2022-10-17T10:59:34;1039.3;;;22.8;31.3
55858;BME280;41779;52.360;31.026;2022-10-17T11:04:34;1039.4;;;22.2;31.6
55858;BME280;41779;52.360;31.026;2022-10-17T11:09:11;1039.4;;;21.3;32.5
55858;BME280;41779;52.360;31.026;2022-10-17T11:13:53;1039.4;;;20.6;33.8
55858;BME280;41779;52.360;31.026;2022-10-17T11:19:33;1039.4;;;19.8;34.9
55858;BME280;41779;52.360;31.026;2022-10-17T11:24:35;1039.4;;;19.2;35.8
55858;BME280;41779;52.360;31.026;2022-10-17T11:29:01;1039.4;;;18.8;36.6
55858;BME280;41779;52.360;31.026;2022-10-17T11:33:59;1039.4;;;18.6;37.2
55858;BME280;41779;52.360;31.026;2022-10-17T11:39:10;1039.5;;;18.4;37.7
55858;BME280;41779;52.360;31.026;2022-10-17T11:44:28;1039.4;;;18.2;38.2
55858;BME280;41779;52.360;31.026;2022-10-17T11:48:51;1039.4;;;18.2;38.5
55858;BME280;41779;52.360;31.026;2022-10-17T11:53:55;1039.4;;;18.3;38.6
55858;BME280;41779;52.360;31.026;2022-10-17T11:59:24;1039.3;;;18.3;38.6
55858;BME280;41779;52.360;31.026;2022-10-17T12:04:37;1039.3;;;18.1;39.1
55858;BME280;41779;52.360;31.026;2022-10-17T12:09:26;1039.3;;;17.9;39.5
55858;BME280;41779;52.360;31.026;2022-10-17T12:14:37;1039.4;;;17.7;40
55858;BME280;41779;52.360;31.026;2022-10-17T12:18:44;1039.4;;;17.9;40
55858;BME280;41779;52.360;31.026;2022-10-17T12:23:58;1039.4;;;18.1;39.8
55858;BME280;41779;52.360;31.026;2022-10-17T12:28:44;1039.3;;;18.3;39.4
55858;BME280;41779;52.360;31.026;2022-10-17T12:34:14;1039.2;;;18.5;38.9
55858;BME280;41779;52.360;31.026;2022-10-17T12:39:41;1039.3;;;18.6;38.6
55858;BME280;41779;52.360;31.026;2022-10-17T12:44:05;1039.2;;;18.6;38.6
55858;BME280;41779;52.360;31.026;2022-10-17T12:49:21;1039.2;;;18.4;39
55858;BME280;41779;52.360;31.026;2022-10-17T12:54:16;1039.2;;;18.1;39.3
55858;BME280;41779;52.360;31.026;2022-10-17T12:58:46;1039.3;;;18;39.6
55858;BME280;41779;52.360;31.026;2022-10-17T13:04:10;1039.3;;;18;40
55858;BME280;41779;52.360;31.026;2022-10-17T13:09:07;1039.2;;;18;40.2
55858;BME280;41779;52.360;31.026;2022-10-17T13:13:51;1039.1;;;18.2;40.2
55858;BME280;41779;52.360;31.026;2022-10-17T13:19:31;1039;;;18.3;40.1
55858;BME280;41779;52.360;31.026;2022-10-17T13:23:44;1039.1;;;18.3;40.1
55858;BME280;41779;52.360;31.026;2022-10-17T13:29:30;1039.1;;;18.3;40.2
55858;BME280;41779;52.360;31.026;2022-10-17T13:34:32;1039.1;;;18.3;40.5
55858;BME280;41779;52.360;31.026;2022-10-17T13:39:19;1039.1;;;18.2;40.9
55858;BME280;41779;52.360;31.026;2022-10-17T13:43:50;1039;;;18.2;41.1
55858;BME280;41779;52.360;31.026;2022-10-17T13:49:33;1039.1;;;18.1;41.3
55858;BME280;41779;52.360;31.026;2022-10-17T13:54:32;1039.2;;;18;41.4
55858;BME280;41779;52.360;31.026;2022-10-17T13:58:59;1039.2;;;17.8;41.6
55858;BME280;41779;52.360;31.026;2022-10-17T14:03:45;1039.2;;;17.7;41.8
55858;BME280;41779;52.360;31.026;2022-10-17T14:08:46;1039.2;;;17.6;42.1
55858;BME280;41779;52.360;31.026;2022-10-17T14:14:32;1039.2;;;17.6;42.5
55858;BME280;41779;52.360;31.026;2022-10-17T14:18:45;1039.2;;;17.5;42.8
55858;BME280;41779;52.360;31.026;2022-10-17T14:24:34;1039.3;;;17.5;42.8
55858;BME280;41779;52.360;31.026;2022-10-17T14:29:20;1039.2;;;17.5;42.8
55858;BME280;41779;52.360;31.026;2022-10-17T14:34:31;1039.2;;;17.5;42.9
55858;BME280;41779;52.360;31.026;2022-10-17T14:39:23;1039.2;;;17.4;43.4
55858;BME280;41779;52.360;31.026;2022-10-17T14:44:31;1039.2;;;17.4;43.6
55858;BME280;41779;52.360;31.026;2022-10-17T14:49:02;1039.2;;;17.4;43.8
55858;BME280;41779;52.360;31.026;2022-10-17T14:53:58;1039.3;;;17.3;43.9
55858;BME280;41779;52.360;31.026;2022-10-17T14:58:44;1039.3;;;17.3;44
55858;BME280;41779;52.360;31.026;2022-10-17T15:04:18;1039.4;;;17.3;44.1
55858;BME280;41779;52.360;31.026;2022-10-17T15:09:32;1039.4;;;17.2;44.6
55858;BME280;41779;52.360;31.026;2022-10-17T15:14:26;1039.4;;;17.2;44.9
55858;BME280;41779;52.360;31.026;2022-10-17T15:19:12;1039.5;;;17.1;45.1
55858;BME280;41779;52.360;31.026;2022-10-17T15:24:32;1039.5;;;17.1;45.1
55858;BME280;41779;52.360;31.026;2022-10-17T15:29:11;1039.6;;;17;45.2
55858;BME280;41779;52.360;31.026;2022-10-17T15:33:52;1039.6;;;17;45.3
55858;BME280;41779;52.360;31.026;2022-10-17T15:39:24;1039.7;;;16.9;45.9
55858;BME280;41779;52.360;31.026;2022-10-17T15:43:45;1039.8;;;16.8;46.2
55858;BME280;41779;52.360;31.026;2022-10-17T15:49:00;1039.7;;;16.8;46.4
55858;BME280;41779;52.360;31.026;2022-10-17T15:54:10;1039.7;;;16.8;46.3
55858;BME280;41779;52.360;31.026;2022-10-17T15:59:19;1039.7;;;16.7;46.3
55858;BME280;41779;52.360;31.026;2022-10-17T16:04:32;1039.7;;;16.7;46.4
55858;BME280;41779;52.360;31.026;2022-10-17T16:09:02;1039.7;;;16.7;46.7
55858;BME280;41779;52.360;31.026;2022-10-17T16:14:18;1039.7;;;16.7;46.9
55858;BME280;41779;52.360;31.026;2022-10-17T16:19:20;1039.7;;;16.7;47
55858;BME280;41779;52.360;31.026;2022-10-17T16:24:30;1039.7;;;16.8;46.9
55858;BME280;41779;52.360;31.026;2022-10-17T16:29:12;1039.7;;;16.7;46.7
55858;BME280;41779;52.360;31.026;2022-10-17T16:33:59;1039.7;;;16.7;46.8
55858;BME280;41779;52.360;31.026;2022-10-17T16:38:50;1039.7;;;16.6;47.1
55858;BME280;41779;52.360;31.026;2022-10-17T16:44:24;1039.7;;;16.6;47.5
55858;BME280;41779;52.360;31.026;2022-10-17T16:49:05;1039.8;;;16.5;47.7
55858;BME280;41779;52.360;31.026;2022-10-17T16:54:12;1039.8;;;16.4;47.8
55858;BME280;41779;52.360;31.026;2022-10-17T16:59:18;1039.7;;;16.4;47.8
55858;BME280;41779;52.360;31.026;2022-10-17T17:04:20;1039.6;;;16.3;48
55858;BME280;41779;52.360;31.026;2022-10-17T17:08:46;1039.6;;;16.2;48.2
55858;BME280;41779;52.360;31.026;2022-10-17T17:14:34;1039.6;;;16.1;49
55858;BME280;41779;52.360;31.026;2022-10-17T17:19:32;1039.6;;;16;49.4
55858;BME280;41779;52.360;31.026;2022-10-17T17:23:52;1039.6;;;15.9;49.4
55858;BME280;41779;52.360;31.026;2022-10-17T17:28:44;1039.5;;;15.8;49.4
55858;BME280;41779;52.360;31.026;2022-10-17T17:34:35;1039.5;;;15.8;49.4
55858;BME280;41779;52.360;31.026;2022-10-17T17:39:32;1039.6;;;15.7;49.5
55858;BME280;41779;52.360;31.026;2022-10-17T17:44:22;1039.5;;;15.7;49.9
55858;BME280;41779;52.360;31.026;2022-10-17T17:49:30;1039.5;;;15.7;50.2
55858;BME280;41779;52.360;31.026;2022-10-17T17:54:17;1039.5;;;15.6;50.3
55858;BME280;41779;52.360;31.026;2022-10-17T17:59:00;1039.5;;;15.7;50.2
55858;BME280;41779;52.360;31.026;2022-10-17T18:04:10;1039.5;;;15.6;50.1
55858;BME280;41779;52.360;31.026;2022-10-17T18:09:22;1039.4;;;15.6;50.1
55858;BME280;41779;52.360;31.026;2022-10-17T18:14:05;1039.4;;;15.6;50.1
55858;BME280;41779;52.360;31.026;2022-10-17T18:18:54;1039.5;;;15.6;50.4
55858;BME280;41779;52.360;31.026;2022-10-17T18:24:12;1039.5;;;15.6;50.4
55858;BME280;41779;52.360;31.026;2022-10-17T18:29:32;1039.5;;;15.6;50.5
55858;BME280;41779;52.360;31.026;2022-10-17T18:34:30;1039.5;;;15.6;50.4
55858;BME280;41779;52.360;31.026;2022-10-17T18:39:34;1039.5;;;15.5;50.4
55858;BME280;41779;52.360;31.026;2022-10-17T18:44:04;1039.5;;;15.5;50.5
55858;BME280;41779;52.360;31.026;2022-10-17T18:49:19;1039.5;;;15.5;50.7
55858;BME280;41779;52.360;31.026;2022-10-17T18:54:34;1039.5;;;15.5;50.7
55858;BME280;41779;52.360;31.026;2022-10-17T18:59:12;1039.4;;;15.4;50.8
55858;BME280;41779;52.360;31.026;2022-10-17T19:03:45;1039.4;;;15.5;50.6
55858;BME280;41779;52.360;31.026;2022-10-17T19:08:57;1039.4;;;15.5;50.5
55858;BME280;41779;52.360;31.026;2022-10-17T19:14:22;1039.4;;;15.4;50.6
55858;BME280;41779;52.360;31.026;2022-10-17T19:19:13;1039.4;;;15.4;50.9
55858;BME280;41779;52.360;31.026;2022-10-17T19:24:11;1039.4;;;15.3;51.1
55858;BME280;41779;52.360;31.026;2022-10-17T19:29:04;1039.4;;;15.2;51.5
55858;BME280;41779;52.360;31.026;2022-10-17T19:34:06;1039.4;;;15.1;51.5
55858;BME280;41779;52.360;31.026;2022-10-17T19:39:30;1039.4;;;15;51.5
55858;BME280;41779;52.360;31.026;2022-10-17T19:44:26;1039.4;;;15;51.5
55858;BME280;41779;52.360;31.026;2022-10-17T19:49:34;1039.4;;;14.9;51.7
55858;BME280;41779;52.360;31.026;2022-10-17T19:53:59;1039.3;;;14.9;51.8
55858;BME280;41779;52.360;31.026;2022-10-17T19:58:45;1039.2;;;14.9;51.9
55858;BME280;41779;52.360;31.026;2022-10-17T20:03:44;1039.2;;;14.9;51.9
55858;BME280;41779;52.360;31.026;2022-10-17T20:09:20;1039.2;;;14.8;52
55858;BME280;41779;52.360;31.026;2022-10-17T20:14:34;1039.2;;;14.8;51.8
55858;BME280;41779;52.360;31.026;2022-10-17T20:19:08;1039.2;;;14.9;51.8
55858;BME280;41779;52.360;31.026;2022-10-17T20:24:20;1039.2;;;14.9;51.8
55858;BME280;41779;52.360;31.026;2022-10-17T20:29:21;1039.2;;;14.9;51.8
55858;BME280;41779;52.360;31.026;2022-10-17T20:33:44;1039.2;;;14.9;51.7
55858;BME280;41779;52.360;31.026;2022-10-17T20:39:09;1039.1;;;14.9;51.7
55858;BME280;41779;52.360;31.026;2022-10-17T20:43:51;1039.1;;;14.9;51.7
55858;BME280;41779;52.360;31.026;2022-10-17T20:48:44;1039.1;;;14.8;51.7
55858;BME280;41779;52.360;31.026;2022-10-17T20:53:58;1039.1;;;14.8;51.9
55858;BME280;41779;52.360;31.026;2022-10-17T20:59:11;1039.1;;;14.7;52.1
55858;BME280;41779;52.360;31.026;2022-10-17T21:04:34;1039.2;;;14.7;52.3
55858;BME280;41779;52.360;31.026;2022-10-17T21:09:20;1039.2;;;14.7;52.3
55858;BME280;41779;52.360;31.026;2022-10-17T21:14:21;1039.2;;;14.7;52.2
55858;BME280;41779;52.360;31.026;2022-10-17T21:18:50;1039.2;;;14.6;52.3
55858;BME280;41779;52.360;31.026;2022-10-17T21:24:32;1039.1;;;14.6;52.5
55858;BME280;41779;52.360;31.026;2022-10-17T21:29:32;1039.1;;;14.5;52.9
55858;BME280;41779;52.360;31.026;2022-10-17T21:34:34;1039.1;;;14.5;53.1
55858;BME280;41779;52.360;31.026;2022-10-17T21:38:45;1039.2;;;14.5;53.1
55858;BME280;41779;52.360;31.026;2022-10-17T21:43:45;1039.2;;;14.5;53
55858;BME280;41779;52.360;31.026;2022-10-17T21:49:16;1039.1;;;14.6;53
55858;BME280;41779;52.360;31.026;2022-10-17T21:53:56;1039.1;;;14.6;53
55858;BME280;41779;52.360;31.026;2022-10-17T21:59:18;1039.1;;;14.6;53.4
55858;BME280;41779;52.360;31.026;2022-10-17T22:04:03;1039;;;14.7;53.5
55858;BME280;41779;52.360;31.026;2022-10-17T22:09:32;1039;;;14.7;53.4
55858;BME280;41779;52.360;31.026;2022-10-17T22:14:23;1039;;;14.7;53.4
55858;BME280;41779;52.360;31.026;2022-10-17T22:19:30;1039.1;;;14.6;53.5
55858;BME280;41779;52.360;31.026;2022-10-17T22:24:32;1039.1;;;14.6;53.6
55858;BME280;41779;52.360;31.026;2022-10-17T22:28:44;1039.1;;;14.5;53.9
55858;BME280;41779;52.360;31.026;2022-10-17T22:33:56;1039;;;14.6;54
55858;BME280;41779;52.360;31.026;2022-10-17T22:39:20;1039;;;14.6;54.1
55858;BME280;41779;52.360;31.026;2022-10-17T22:44:32;1038.9;;;14.6;54
55858;BME280;41779;52.360;31.026;2022-10-17T22:48:58;1038.8;;;14.6;54
55858;BME280;41779;52.360;31.026;2022-10-17T22:54:18;1038.7;;;14.6;54.1
55858;BME280;41779;52.360;31.026;2022-10-17T22:59:06;1038.6;;;14.6;54.3
55858;BME280;41779;52.360;31.026;2022-10-17T23:04:13;1038.6;;;14.6;54.6
55858;BME280;41779;52.360;31.026;2022-10-17T23:09:10;1038.4;;;14.6;54.7
55858;BME280;41779;52.360;31.026;2022-10-17T23:14:00;1038.4;;;14.7;54.8
55858;BME280;41779;52.360;31.026;2022-10-17T23:18:44;1038.4;;;14.7;54.8
55858;BME280;41779;52.360;31.026;2022-10-17T23:23:44;1038.4;;;14.7;54.8
55858;BME280;41779;52.360;31.026;2022-10-17T23:29:10;1038.4;;;14.7;54.9
55858;BME280;41779;52.360;31.026;2022-10-17T23:34:27;1038.3;;;14.8;55.2
55858;BME280;41779;52.360;31.026;2022-10-17T23:39:26;1038.3;;;14.8;55.3
55858;BME280;41779;52.360;31.026;2022-10-17T23:44:03;1038.2;;;14.9;55.3
55858;BME280;41779;52.360;31.026;2022-10-17T23:48:56;1038.2;;;14.9;55.2
55858;BME280;41779;52.360;31.026;2022-10-17T23:54:26;1038.2;;;14.9;55.2
55858;BME280;41779;52.360;31.026;2022-10-17T23:59:26;1038.1;;;15;55.3
